Masset, Canada
Current Conditions -  °F | °C
As of 10:00 AM on Thursday 23 Oct 2014 (Local Time) from CZMT Reporting Station
Scattered Clouds Scattered Clouds  
Wind Chill:   Ceiling: Unl
Heat Index:   Visibility: 15mi
Dew Point:   Wind: 7mph
Humidity: 87%   Direction: 160°SSE
Pressure: 29.53"   Gusts: NA
Location:  54.02°N, 132.15°W
Report Text: CZMT 231700Z 16006KT 15SM FEW008 FEW016CB FEW085 SCT210 06/04 A2953 RMK SC1CB1AC1CI1 SC TR SH W SLP001
Loading
Personal Weather Stations






























Interactive Weather Map
Tropical Storm Tracking
New forecast layout! Learn more

10-Day Weather Forecast

Advertisements
Track Severe Weather on mobile